sensor_id;sensor_type;location;lat;lon;timestamp;pressure;altitude;pressure_sealevel;temperature;humidity
2188;BME280;1100;52.014;8.540;2022-10-16T00:01:17;99689.19;;;11.91;87.80
2188;BME280;1100;52.014;8.540;2022-10-16T00:03:44;99694.31;;;11.93;87.69
2188;BME280;1100;52.014;8.540;2022-10-16T00:06:10;99702.34;;;11.91;87.48
2188;BME280;1100;52.014;8.540;2022-10-16T00:08:37;99703.13;;;11.91;87.63
2188;BME280;1100;52.014;8.540;2022-10-16T00:11:11;99699.56;;;11.91;87.72
2188;BME280;1100;52.014;8.540;2022-10-16T00:13:39;99701.72;;;11.87;87.73
2188;BME280;1100;52.014;8.540;2022-10-16T00:16:05;99695.81;;;11.84;87.55
2188;BME280;1100;52.014;8.540;2022-10-16T00:18:31;99687.28;;;11.79;87.67
2188;BME280;1100;52.014;8.540;2022-10-16T00:21:05;99689.94;;;11.82;87.92
2188;BME280;1100;52.014;8.540;2022-10-16T00:23:31;99704.63;;;11.83;87.68
2188;BME280;1100;52.014;8.540;2022-10-16T00:25:58;99708.31;;;11.80;87.81
2188;BME280;1100;52.014;8.540;2022-10-16T00:28:25;99698.44;;;11.79;87.84
2188;BME280;1100;52.014;8.540;2022-10-16T00:30:51;99711.25;;;11.76;87.71
2188;BME280;1100;52.014;8.540;2022-10-16T00:33:17;99709.06;;;11.71;87.74
2188;BME280;1100;52.014;8.540;2022-10-16T00:35:42;99697.88;;;11.62;87.39
2188;BME280;1100;52.014;8.540;2022-10-16T00:38:08;99701.25;;;11.56;87.40
2188;BME280;1100;52.014;8.540;2022-10-16T00:40:33;99704.31;;;11.49;87.38
2188;BME280;1100;52.014;8.540;2022-10-16T00:42:59;99697.50;;;11.50;87.68
2188;BME280;1100;52.014;8.540;2022-10-16T00:45:24;99688.41;;;11.50;87.60
2188;BME280;1100;52.014;8.540;2022-10-16T00:47:52;99690.72;;;11.51;87.59
2188;BME280;1100;52.014;8.540;2022-10-16T00:50:28;99691.19;;;11.50;87.65
2188;BME280;1100;52.014;8.540;2022-10-16T00:52:56;99690.28;;;11.53;87.83
2188;BME280;1100;52.014;8.540;2022-10-16T00:55:22;99699.84;;;11.52;87.75
2188;BME280;1100;52.014;8.540;2022-10-16T00:57:48;99700.28;;;11.50;87.82
2188;BME280;1100;52.014;8.540;2022-10-16T01:00:21;99708.78;;;11.46;87.53
2188;BME280;1100;52.014;8.540;2022-10-16T01:02:58;99706.47;;;11.45;87.80
2188;BME280;1100;52.014;8.540;2022-10-16T01:05:39;99696.88;;;11.46;87.80
2188;BME280;1100;52.014;8.540;2022-10-16T01:08:13;99696.09;;;11.45;87.72
2188;BME280;1100;52.014;8.540;2022-10-16T01:10:52;99714.34;;;11.46;87.93
2188;BME280;1100;52.014;8.540;2022-10-16T01:13:31;99711.25;;;11.44;87.80
2188;BME280;1100;52.014;8.540;2022-10-16T01:16:41;99719.25;;;11.42;87.55
2188;BME280;1100;52.014;8.540;2022-10-16T01:19:14;99722.78;;;11.33;87.40
2188;BME280;1100;52.014;8.540;2022-10-16T01:21:44;99719.22;;;11.33;87.93
2188;BME280;1100;52.014;8.540;2022-10-16T01:24:45;99720.31;;;11.36;87.83
2188;BME280;1100;52.014;8.540;2022-10-16T01:27:28;99728.47;;;11.30;87.47
2188;BME280;1100;52.014;8.540;2022-10-16T01:30:01;99719.81;;;11.28;87.66
2188;BME280;1100;52.014;8.540;2022-10-16T01:32:35;99719.47;;;11.26;87.66
2188;BME280;1100;52.014;8.540;2022-10-16T01:35:09;99725.16;;;11.22;87.81
2188;BME280;1100;52.014;8.540;2022-10-16T01:37:44;99719.94;;;11.24;87.86
2188;BME280;1100;52.014;8.540;2022-10-16T01:40:15;99729.19;;;11.21;87.70
2188;BME280;1100;52.014;8.540;2022-10-16T01:42:46;99729.75;;;11.16;87.71
2188;BME280;1100;52.014;8.540;2022-10-16T01:45:15;99735.31;;;11.16;87.65
2188;BME280;1100;52.014;8.540;2022-10-16T01:47:43;99736.69;;;11.11;87.57
2188;BME280;1100;52.014;8.540;2022-10-16T01:50:09;99745.63;;;11.06;87.57
2188;BME280;1100;52.014;8.540;2022-10-16T01:52:39;99732.16;;;11.04;87.84
2188;BME280;1100;52.014;8.540;2022-10-16T01:55:08;99740.50;;;11.04;87.82
2188;BME280;1100;52.014;8.540;2022-10-16T01:57:38;99738.94;;;11.03;87.73
2188;BME280;1100;52.014;8.540;2022-10-16T02:00:09;99728.72;;;11.00;87.75
2188;BME280;1100;52.014;8.540;2022-10-16T02:02:36;99734.16;;;11.04;87.96
2188;BME280;1100;52.014;8.540;2022-10-16T02:05:28;99734.94;;;11.04;87.82
2188;BME280;1100;52.014;8.540;2022-10-16T02:07:55;99735.84;;;11.01;87.67
2188;BME280;1100;52.014;8.540;2022-10-16T02:10:21;99732.72;;;10.99;87.88
2188;BME280;1100;52.014;8.540;2022-10-16T02:12:55;99734.28;;;11.00;87.92
2188;BME280;1100;52.014;8.540;2022-10-16T02:15:21;99726.91;;;11.06;88.10
2188;BME280;1100;52.014;8.540;2022-10-16T02:17:46;99721.22;;;11.10;88.08
2188;BME280;1100;52.014;8.540;2022-10-16T02:20:12;99714.31;;;11.15;88.15
2188;BME280;1100;52.014;8.540;2022-10-16T02:22:43;99722.38;;;11.22;88.73
2188;BME280;1100;52.014;8.540;2022-10-16T02:25:22;99711.00;;;11.29;88.51
2188;BME280;1100;52.014;8.540;2022-10-16T02:30:40;99715.91;;;11.25;88.00
2188;BME280;1100;52.014;8.540;2022-10-16T02:33:09;99709.72;;;11.21;87.95
2188;BME280;1100;52.014;8.540;2022-10-16T02:35:36;99711.41;;;11.18;88.10
2188;BME280;1100;52.014;8.540;2022-10-16T02:38:03;99717.72;;;11.19;88.24
2188;BME280;1100;52.014;8.540;2022-10-16T02:40:29;99717.59;;;11.23;88.46
2188;BME280;1100;52.014;8.540;2022-10-16T02:42:55;99716.41;;;11.33;88.39
2188;BME280;1100;52.014;8.540;2022-10-16T02:45:22;99710.28;;;11.38;88.63
2188;BME280;1100;52.014;8.540;2022-10-16T02:47:47;99724.38;;;11.44;88.54
2188;BME280;1100;52.014;8.540;2022-10-16T02:50:13;99732.28;;;11.45;88.39
2188;BME280;1100;52.014;8.540;2022-10-16T02:52:39;99729.94;;;11.44;88.36
2188;BME280;1100;52.014;8.540;2022-10-16T02:55:05;99727.94;;;11.44;88.63
2188;BME280;1100;52.014;8.540;2022-10-16T02:57:30;99726.59;;;11.49;88.75
2188;BME280;1100;52.014;8.540;2022-10-16T02:59:56;99720.44;;;11.54;88.63
2188;BME280;1100;52.014;8.540;2022-10-16T03:02:22;99735.44;;;11.57;88.67
2188;BME280;1100;52.014;8.540;2022-10-16T03:04:47;99727.41;;;11.59;88.92
2188;BME280;1100;52.014;8.540;2022-10-16T03:07:13;99734.41;;;11.64;88.70
2188;BME280;1100;52.014;8.540;2022-10-16T03:09:38;99735.63;;;11.63;88.57
2188;BME280;1100;52.014;8.540;2022-10-16T03:12:03;99740.09;;;11.60;88.51
2188;BME280;1100;52.014;8.540;2022-10-16T03:14:29;99743.06;;;11.66;88.89
2188;BME280;1100;52.014;8.540;2022-10-16T03:16:54;99735.66;;;11.72;88.85
2188;BME280;1100;52.014;8.540;2022-10-16T03:19:19;99734.13;;;11.71;88.77
2188;BME280;1100;52.014;8.540;2022-10-16T03:21:45;99740.94;;;11.70;88.71
2188;BME280;1100;52.014;8.540;2022-10-16T03:24:11;99734.75;;;11.75;88.88
2188;BME280;1100;52.014;8.540;2022-10-16T03:26:36;99738.44;;;11.72;88.67
2188;BME280;1100;52.014;8.540;2022-10-16T03:29:02;99733.50;;;11.67;88.49
2188;BME280;1100;52.014;8.540;2022-10-16T03:31:29;99734.41;;;11.64;88.68
2188;BME280;1100;52.014;8.540;2022-10-16T03:33:54;99733.00;;;11.59;88.50
2188;BME280;1100;52.014;8.540;2022-10-16T03:36:20;99734.81;;;11.53;88.36
2188;BME280;1100;52.014;8.540;2022-10-16T03:38:45;99734.59;;;11.47;88.32
2188;BME280;1100;52.014;8.540;2022-10-16T03:41:10;99736.16;;;11.48;88.60
2188;BME280;1100;52.014;8.540;2022-10-16T03:43:36;99742.94;;;11.47;88.64
2188;BME280;1100;52.014;8.540;2022-10-16T03:46:01;99743.09;;;11.43;88.61
2188;BME280;1100;52.014;8.540;2022-10-16T03:50:54;99746.00;;;11.40;88.65
2188;BME280;1100;52.014;8.540;2022-10-16T03:53:20;99736.56;;;11.37;88.44
2188;BME280;1100;52.014;8.540;2022-10-16T03:55:45;99746.47;;;11.38;88.76
2188;BME280;1100;52.014;8.540;2022-10-16T03:58:11;99745.56;;;11.41;88.79
2188;BME280;1100;52.014;8.540;2022-10-16T04:00:41;99744.66;;;11.44;88.72
2188;BME280;1100;52.014;8.540;2022-10-16T04:03:07;99749.94;;;11.52;89.05
2188;BME280;1100;52.014;8.540;2022-10-16T04:05:32;99736.69;;;11.56;88.74
2188;BME280;1100;52.014;8.540;2022-10-16T04:07:57;99738.41;;;11.63;88.92
2188;BME280;1100;52.014;8.540;2022-10-16T04:10:23;99740.16;;;11.69;88.82
2188;BME280;1100;52.014;8.540;2022-10-16T04:12:48;99731.66;;;11.73;88.82
2188;BME280;1100;52.014;8.540;2022-10-16T04:15:13;99740.31;;;11.75;88.81
2188;BME280;1100;52.014;8.540;2022-10-16T04:17:38;99735.22;;;11.74;88.56
2188;BME280;1100;52.014;8.540;2022-10-16T04:20:04;99742.03;;;11.73;88.59
2188;BME280;1100;52.014;8.540;2022-10-16T04:22:30;99739.50;;;11.65;88.35
2188;BME280;1100;52.014;8.540;2022-10-16T04:24:55;99735.31;;;11.61;88.50
2188;BME280;1100;52.014;8.540;2022-10-16T04:27:20;99743.97;;;11.63;88.74
2188;BME280;1100;52.014;8.540;2022-10-16T04:29:46;99754.34;;;11.62;88.66
2188;BME280;1100;52.014;8.540;2022-10-16T04:32:11;99758.56;;;11.67;88.93
2188;BME280;1100;52.014;8.540;2022-10-16T04:34:36;99769.22;;;11.68;88.69
2188;BME280;1100;52.014;8.540;2022-10-16T04:37:04;99764.28;;;11.73;88.79
2188;BME280;1100;52.014;8.540;2022-10-16T04:39:29;99772.19;;;11.74;88.56
2188;BME280;1100;52.014;8.540;2022-10-16T04:41:54;99778.53;;;11.75;88.72
2188;BME280;1100;52.014;8.540;2022-10-16T04:44:20;99779.97;;;11.79;88.80
2188;BME280;1100;52.014;8.540;2022-10-16T04:46:45;99771.63;;;11.79;88.65
2188;BME280;1100;52.014;8.540;2022-10-16T04:49:10;99763.56;;;11.81;88.69
2188;BME280;1100;52.014;8.540;2022-10-16T04:51:36;99773.16;;;11.80;88.75
2188;BME280;1100;52.014;8.540;2022-10-16T04:54:01;99788.63;;;11.81;88.92
2188;BME280;1100;52.014;8.540;2022-10-16T04:56:26;99797.31;;;11.83;88.61
2188;BME280;1100;52.014;8.540;2022-10-16T04:58:52;99787.41;;;11.82;88.68
2188;BME280;1100;52.014;8.540;2022-10-16T05:01:17;99800.41;;;11.86;88.78
2188;BME280;1100;52.014;8.540;2022-10-16T05:03:42;99803.50;;;11.88;88.79
2188;BME280;1100;52.014;8.540;2022-10-16T05:06:08;99789.91;;;11.90;88.72
2188;BME280;1100;52.014;8.540;2022-10-16T05:08:33;99795.47;;;11.90;88.82
2188;BME280;1100;52.014;8.540;2022-10-16T05:10:58;99792.56;;;11.93;88.78
2188;BME280;1100;52.014;8.540;2022-10-16T05:13:24;99796.00;;;11.98;89.02
2188;BME280;1100;52.014;8.540;2022-10-16T05:15:49;99794.31;;;12.00;88.96
2188;BME280;1100;52.014;8.540;2022-10-16T05:18:15;99786.25;;;12.02;89.04
2188;BME280;1100;52.014;8.540;2022-10-16T05:20:41;99791.19;;;11.98;88.63
2188;BME280;1100;52.014;8.540;2022-10-16T05:23:06;99800.78;;;11.97;88.71
2188;BME280;1100;52.014;8.540;2022-10-16T05:25:32;99793.03;;;11.92;88.47
2188;BME280;1100;52.014;8.540;2022-10-16T05:27:57;99800.41;;;11.86;88.67
2188;BME280;1100;52.014;8.540;2022-10-16T05:30:23;99810.78;;;11.85;88.60
2188;BME280;1100;52.014;8.540;2022-10-16T05:32:49;99807.81;;;11.79;88.28
2188;BME280;1100;52.014;8.540;2022-10-16T05:35:16;99811.63;;;11.73;88.51
2188;BME280;1100;52.014;8.540;2022-10-16T05:37:41;99801.53;;;11.66;88.53
2188;BME280;1100;52.014;8.540;2022-10-16T05:40:08;99813.91;;;11.65;88.62
2188;BME280;1100;52.014;8.540;2022-10-16T05:42:33;99813.13;;;11.64;88.63
2188;BME280;1100;52.014;8.540;2022-10-16T05:44:58;99802.75;;;11.65;88.66
2188;BME280;1100;52.014;8.540;2022-10-16T05:47:24;99801.22;;;11.64;88.60
2188;BME280;1100;52.014;8.540;2022-10-16T05:49:49;99820.50;;;11.58;88.59
2188;BME280;1100;52.014;8.540;2022-10-16T05:52:15;99826.97;;;11.55;88.62
2188;BME280;1100;52.014;8.540;2022-10-16T05:54:40;99831.31;;;11.56;88.77
2188;BME280;1100;52.014;8.540;2022-10-16T05:57:05;99837.34;;;11.54;88.89
2188;BME280;1100;52.014;8.540;2022-10-16T05:59:31;99837.97;;;11.58;88.89
2188;BME280;1100;52.014;8.540;2022-10-16T06:01:57;99852.22;;;11.61;88.76
2188;BME280;1100;52.014;8.540;2022-10-16T06:04:22;99842.53;;;11.65;88.84
2188;BME280;1100;52.014;8.540;2022-10-16T06:06:47;99840.19;;;11.64;88.49
2188;BME280;1100;52.014;8.540;2022-10-16T06:09:13;99848.22;;;11.62;88.62
2188;BME280;1100;52.014;8.540;2022-10-16T06:11:38;99842.31;;;11.59;88.70
2188;BME280;1100;52.014;8.540;2022-10-16T06:14:03;99849.31;;;11.64;88.54
2188;BME280;1100;52.014;8.540;2022-10-16T06:16:33;99861.22;;;11.65;88.66
2188;BME280;1100;52.014;8.540;2022-10-16T06:18:59;99863.44;;;11.70;88.87
2188;BME280;1100;52.014;8.540;2022-10-16T06:21:26;99866.06;;;11.74;88.56
2188;BME280;1100;52.014;8.540;2022-10-16T06:23:52;99865.63;;;11.75;88.76
2188;BME280;1100;52.014;8.540;2022-10-16T06:26:20;99866.59;;;11.81;88.89
2188;BME280;1100;52.014;8.540;2022-10-16T06:28:46;99853.63;;;11.88;88.73
2188;BME280;1100;52.014;8.540;2022-10-16T06:31:12;99872.22;;;11.91;88.70
2188;BME280;1100;52.014;8.540;2022-10-16T06:33:39;99868.28;;;12.01;88.84
2188;BME280;1100;52.014;8.540;2022-10-16T06:36:13;99872.84;;;12.08;88.50
2188;BME280;1100;52.014;8.540;2022-10-16T06:38:39;99872.63;;;12.25;88.54
2188;BME280;1100;52.014;8.540;2022-10-16T06:41:06;99880.53;;;12.58;87.99
2188;BME280;1100;52.014;8.540;2022-10-16T06:43:32;99879.44;;;12.65;88.29
2188;BME280;1100;52.014;8.540;2022-10-16T06:46:01;99890.38;;;12.81;87.80
2188;BME280;1100;52.014;8.540;2022-10-16T06:48:27;99894.34;;;12.71;88.13
2188;BME280;1100;52.014;8.540;2022-10-16T06:51:00;99894.63;;;12.64;87.93
2188;BME280;1100;52.014;8.540;2022-10-16T06:53:27;99896.16;;;12.55;88.11
2188;BME280;1100;52.014;8.540;2022-10-16T06:55:53;99901.69;;;12.46;88.09
2188;BME280;1100;52.014;8.540;2022-10-16T06:58:19;99896.38;;;12.39;88.05
2188;BME280;1100;52.014;8.540;2022-10-16T07:00:45;99910.91;;;12.33;88.18
2188;BME280;1100;52.014;8.540;2022-10-16T07:03:10;99912.16;;;12.32;88.09
2188;BME280;1100;52.014;8.540;2022-10-16T07:05:40;99920.84;;;12.35;88.44
2188;BME280;1100;52.014;8.540;2022-10-16T07:08:06;99914.03;;;12.36;88.58
2188;BME280;1100;52.014;8.540;2022-10-16T07:10:32;99926.72;;;12.37;88.36
2188;BME280;1100;52.014;8.540;2022-10-16T07:12:58;99923.94;;;12.37;88.25
2188;BME280;1100;52.014;8.540;2022-10-16T07:15:24;99927.50;;;12.37;88.41
2188;BME280;1100;52.014;8.540;2022-10-16T07:17:50;99928.91;;;12.42;88.33
2188;BME280;1100;52.014;8.540;2022-10-16T07:20:15;99937.63;;;12.44;88.07
2188;BME280;1100;52.014;8.540;2022-10-16T07:22:41;99944.16;;;12.50;88.23
2188;BME280;1100;52.014;8.540;2022-10-16T07:25:06;99945.41;;;12.58;88.40
2188;BME280;1100;52.014;8.540;2022-10-16T07:27:32;99952.28;;;12.67;88.53
2188;BME280;1100;52.014;8.540;2022-10-16T07:29:57;99948.75;;;12.76;88.38
2188;BME280;1100;52.014;8.540;2022-10-16T07:32:22;99964.75;;;12.85;88.37
2188;BME280;1100;52.014;8.540;2022-10-16T07:34:48;99964.16;;;12.90;87.86
2188;BME280;1100;52.014;8.540;2022-10-16T07:37:14;99970.84;;;12.92;88.11
2188;BME280;1100;52.014;8.540;2022-10-16T07:39:39;99969.75;;;12.99;88.08
2188;BME280;1100;52.014;8.540;2022-10-16T07:42:04;99985.00;;;13.07;87.94
2188;BME280;1100;52.014;8.540;2022-10-16T07:44:30;99994.31;;;13.14;87.99
2188;BME280;1100;52.014;8.540;2022-10-16T07:46:55;99997.09;;;13.14;88.01
2188;BME280;1100;52.014;8.540;2022-10-16T07:49:20;99987.97;;;13.23;88.03
2188;BME280;1100;52.014;8.540;2022-10-16T07:51:46;100001.78;;;13.26;87.90
2188;BME280;1100;52.014;8.540;2022-10-16T07:54:11;100004.91;;;13.28;87.52
2188;BME280;1100;52.014;8.540;2022-10-16T07:56:36;100014.00;;;13.19;87.62
2188;BME280;1100;52.014;8.540;2022-10-16T07:59:02;100019.88;;;13.12;87.51
2188;BME280;1100;52.014;8.540;2022-10-16T08:01:27;100014.72;;;13.01;87.59
2188;BME280;1100;52.014;8.540;2022-10-16T08:03:52;100020.25;;;12.92;87.72
2188;BME280;1100;52.014;8.540;2022-10-16T08:06:19;100025.50;;;12.90;87.43
2188;BME280;1100;52.014;8.540;2022-10-16T08:08:45;100035.31;;;12.94;87.77
2188;BME280;1100;52.014;8.540;2022-10-16T08:11:11;100015.81;;;13.04;87.73
2188;BME280;1100;52.014;8.540;2022-10-16T08:13:36;100016.97;;;13.16;87.79
2188;BME280;1100;52.014;8.540;2022-10-16T08:16:02;100027.25;;;13.28;87.82
2188;BME280;1100;52.014;8.540;2022-10-16T08:18:32;100033.19;;;13.40;87.54
2188;BME280;1100;52.014;8.540;2022-10-16T08:20:59;100035.88;;;13.53;87.77
2188;BME280;1100;52.014;8.540;2022-10-16T08:23:25;100035.28;;;13.67;87.69
2188;BME280;1100;52.014;8.540;2022-10-16T08:25:52;100043.09;;;13.82;87.37
2188;BME280;1100;52.014;8.540;2022-10-16T08:28:18;100040.78;;;13.99;87.33
2188;BME280;1100;52.014;8.540;2022-10-16T08:30:44;100050.56;;;14.13;86.96
2188;BME280;1100;52.014;8.540;2022-10-16T08:33:09;100052.56;;;14.22;86.95
2188;BME280;1100;52.014;8.540;2022-10-16T08:35:34;100063.59;;;14.26;87.26
2188;BME280;1100;52.014;8.540;2022-10-16T08:37:59;100053.19;;;14.26;86.93
2188;BME280;1100;52.014;8.540;2022-10-16T08:40:28;100070.41;;;14.25;86.97
2188;BME280;1100;52.014;8.540;2022-10-16T08:46:04;100062.97;;;14.31;87.03
2188;BME280;1100;52.014;8.540;2022-10-16T08:48:37;100070.59;;;14.30;87.02
2188;BME280;1100;52.014;8.540;2022-10-16T08:51:08;100078.34;;;14.36;87.11
2188;BME280;1100;52.014;8.540;2022-10-16T08:53:44;100076.78;;;14.35;87.10
2188;BME280;1100;52.014;8.540;2022-10-16T08:56:10;100081.47;;;14.38;87.28
2188;BME280;1100;52.014;8.540;2022-10-16T08:58:35;100088.44;;;14.42;87.18
2188;BME280;1100;52.014;8.540;2022-10-16T09:01:03;100082.38;;;14.44;87.10
2188;BME280;1100;52.014;8.540;2022-10-16T09:04:03;100095.44;;;14.47;87.03
2188;BME280;1100;52.014;8.540;2022-10-16T09:07:01;100107.56;;;14.53;86.76
2188;BME280;1100;52.014;8.540;2022-10-16T09:12:32;100102.09;;;14.59;86.86
2188;BME280;1100;52.014;8.540;2022-10-16T09:17:48;100114.06;;;14.69;86.45
2188;BME280;1100;52.014;8.540;2022-10-16T09:22:41;100114.88;;;14.79;86.27
2188;BME280;1100;52.014;8.540;2022-10-16T09:25:13;100112.22;;;14.85;85.96
2188;BME280;1100;52.014;8.540;2022-10-16T09:27:39;100118.59;;;14.85;85.78
2188;BME280;1100;52.014;8.540;2022-10-16T09:30:13;100125.13;;;14.91;85.94
2188;BME280;1100;52.014;8.540;2022-10-16T09:32:40;100114.97;;;15.03;85.95
2188;BME280;1100;52.014;8.540;2022-10-16T09:35:13;100121.94;;;15.17;86.09
2188;BME280;1100;52.014;8.540;2022-10-16T09:37:40;100125.63;;;15.33;85.99
2188;BME280;1100;52.014;8.540;2022-10-16T09:40:11;100120.22;;;15.29;84.26
2188;BME280;1100;52.014;8.540;2022-10-16T09:42:37;100133.75;;;15.22;84.46
2188;BME280;1100;52.014;8.540;2022-10-16T09:45:03;100118.88;;;15.06;83.93
2188;BME280;1100;52.014;8.540;2022-10-16T09:47:30;100127.56;;;14.99;84.06
2188;BME280;1100;52.014;8.540;2022-10-16T09:50:02;100123.09;;;14.92;83.90
2188;BME280;1100;52.014;8.540;2022-10-16T09:52:31;100118.75;;;14.81;83.73
2188;BME280;1100;52.014;8.540;2022-10-16T09:54:59;100129.78;;;14.76;83.57
2188;BME280;1100;52.014;8.540;2022-10-16T09:57:25;100124.97;;;14.76;83.29
2188;BME280;1100;52.014;8.540;2022-10-16T09:59:53;100132.59;;;14.85;83.90
2188;BME280;1100;52.014;8.540;2022-10-16T10:02:27;100129.94;;;14.91;83.60
2188;BME280;1100;52.014;8.540;2022-10-16T10:04:54;100132.41;;;14.98;83.42
2188;BME280;1100;52.014;8.540;2022-10-16T10:07:24;100139.41;;;15.03;83.26
2188;BME280;1100;52.014;8.540;2022-10-16T10:09:50;100154.47;;;15.05;83.20
2188;BME280;1100;52.014;8.540;2022-10-16T10:12:22;100149.19;;;15.07;83.40
2188;BME280;1100;52.014;8.540;2022-10-16T10:14:50;100150.59;;;15.12;83.59
2188;BME280;1100;52.014;8.540;2022-10-16T10:19:57;100162.97;;;15.30;82.95
2188;BME280;1100;52.014;8.540;2022-10-16T10:28:00;100156.38;;;15.52;82.24
2188;BME280;1100;52.014;8.540;2022-10-16T10:30:59;100158.53;;;15.57;81.81
2188;BME280;1100;52.014;8.540;2022-10-16T10:33:43;100162.38;;;15.69;82.16
2188;BME280;1100;52.014;8.540;2022-10-16T10:36:37;100179.31;;;15.75;82.15
2188;BME280;1100;52.014;8.540;2022-10-16T10:39:08;100176.06;;;15.76;81.83
2188;BME280;1100;52.014;8.540;2022-10-16T10:47:40;100174.41;;;15.60;80.12
2188;BME280;1100;52.014;8.540;2022-10-16T10:52:52;100191.56;;;15.53;79.92
2188;BME280;1100;52.014;8.540;2022-10-16T10:55:54;100179.72;;;15.49;79.39
2188;BME280;1100;52.014;8.540;2022-10-16T11:00:57;100185.94;;;15.53;79.58
2188;BME280;1100;52.014;8.540;2022-10-16T11:06:17;100185.69;;;15.75;78.98
2188;BME280;1100;52.014;8.540;2022-10-16T11:11:35;100187.94;;;15.95;78.87
2188;BME280;1100;52.014;8.540;2022-10-16T11:14:14;100188.69;;;16.05;78.95
2188;BME280;1100;52.014;8.540;2022-10-16T11:17:12;100192.81;;;16.19;78.40
2188;BME280;1100;52.014;8.540;2022-10-16T11:25:13;100179.09;;;16.46;77.28
2188;BME280;1100;52.014;8.540;2022-10-16T11:27:43;100197.91;;;16.55;77.85
2188;BME280;1100;52.014;8.540;2022-10-16T11:30:20;100194.25;;;16.64;77.63
2188;BME280;1100;52.014;8.540;2022-10-16T11:35:23;100194.50;;;16.90;74.79
2188;BME280;1100;52.014;8.540;2022-10-16T11:37:50;100205.75;;;17.05;76.11
2188;BME280;1100;52.014;8.540;2022-10-16T11:40:23;100205.09;;;17.11;75.75
2188;BME280;1100;52.014;8.540;2022-10-16T11:43:04;100205.25;;;17.07;73.85
2188;BME280;1100;52.014;8.540;2022-10-16T11:45:39;100204.28;;;16.80;74.42
2188;BME280;1100;52.014;8.540;2022-10-16T11:48:36;100212.59;;;16.50;75.18
2188;BME280;1100;52.014;8.540;2022-10-16T11:54:02;100207.44;;;15.90;75.29
2188;BME280;1100;52.014;8.540;2022-10-16T11:56:30;100208.09;;;15.75;75.69
2188;BME280;1100;52.014;8.540;2022-10-16T11:59:03;100215.59;;;15.69;76.49
2188;BME280;1100;52.014;8.540;2022-10-16T12:01:44;100211.41;;;15.64;76.40
2188;BME280;1100;52.014;8.540;2022-10-16T12:04:23;100211.59;;;15.61;76.54
2188;BME280;1100;52.014;8.540;2022-10-16T12:09:32;100213.19;;;15.52;76.59
2188;BME280;1100;52.014;8.540;2022-10-16T12:11:58;100210.69;;;15.54;76.24
2188;BME280;1100;52.014;8.540;2022-10-16T12:17:04;100217.38;;;15.48;76.67
2188;BME280;1100;52.014;8.540;2022-10-16T12:19:57;100211.00;;;15.47;76.68
2188;BME280;1100;52.014;8.540;2022-10-16T12:22:23;100223.44;;;15.55;77.07
2188;BME280;1100;52.014;8.540;2022-10-16T12:24:51;100232.59;;;15.65;77.24
2188;BME280;1100;52.014;8.540;2022-10-16T12:27:31;100228.03;;;15.77;77.38
2188;BME280;1100;52.014;8.540;2022-10-16T12:29:58;100223.47;;;15.89;77.30
2188;BME280;1100;52.014;8.540;2022-10-16T12:32:35;100231.22;;;16.04;76.80
2188;BME280;1100;52.014;8.540;2022-10-16T12:35:03;100233.81;;;16.17;76.88
2188;BME280;1100;52.014;8.540;2022-10-16T12:37:34;100224.41;;;16.29;76.48
2188;BME280;1100;52.014;8.540;2022-10-16T12:40:33;100226.19;;;16.42;76.72
2188;BME280;1100;52.014;8.540;2022-10-16T12:42:57;100227.81;;;16.58;76.30
2188;BME280;1100;52.014;8.540;2022-10-16T12:45:29;100228.88;;;16.61;76.34
2188;BME280;1100;52.014;8.540;2022-10-16T12:47:56;100235.28;;;16.61;76.09
2188;BME280;1100;52.014;8.540;2022-10-16T12:50:32;100235.06;;;16.65;75.96
2188;BME280;1100;52.014;8.540;2022-10-16T12:52:59;100238.97;;;16.67;75.58
2188;BME280;1100;52.014;8.540;2022-10-16T12:55:25;100243.44;;;16.74;76.01
2188;BME280;1100;52.014;8.540;2022-10-16T12:58:17;100248.00;;;16.87;75.87
2188;BME280;1100;52.014;8.540;2022-10-16T13:00:55;100245.03;;;16.90;75.53
2188;BME280;1100;52.014;8.540;2022-10-16T13:06:40;100258.00;;;16.88;75.75
2188;BME280;1100;52.014;8.540;2022-10-16T13:14:45;100270.22;;;17.00;75.42
2188;BME280;1100;52.014;8.540;2022-10-16T13:17:25;100263.66;;;17.03;75.17
2188;BME280;1100;52.014;8.540;2022-10-16T13:22:22;100259.25;;;16.87;74.86
2188;BME280;1100;52.014;8.540;2022-10-16T13:25:18;100271.44;;;16.84;75.06
2188;BME280;1100;52.014;8.540;2022-10-16T13:28:06;100271.31;;;16.78;74.42
2188;BME280;1100;52.014;8.540;2022-10-16T13:30:40;100273.41;;;16.68;74.77
2188;BME280;1100;52.014;8.540;2022-10-16T13:35:35;100272.47;;;16.47;75.29
2188;BME280;1100;52.014;8.540;2022-10-16T13:38:14;100278.72;;;16.41;74.65
2188;BME280;1100;52.014;8.540;2022-10-16T13:43:16;100283.84;;;16.43;75.17
2188;BME280;1100;52.014;8.540;2022-10-16T13:45:52;100284.81;;;16.40;75.28
2188;BME280;1100;52.014;8.540;2022-10-16T13:48:18;100299.34;;;16.29;75.37
2188;BME280;1100;52.014;8.540;2022-10-16T13:50:43;100296.41;;;16.23;75.24
2188;BME280;1100;52.014;8.540;2022-10-16T13:53:15;100291.59;;;16.24;75.62
2188;BME280;1100;52.014;8.540;2022-10-16T13:55:40;100300.59;;;16.28;75.58
2188;BME280;1100;52.014;8.540;2022-10-16T13:58:13;100294.09;;;16.22;75.79
2188;BME280;1100;52.014;8.540;2022-10-16T14:00:39;100296.59;;;16.19;75.70
2188;BME280;1100;52.014;8.540;2022-10-16T14:03:12;100296.25;;;16.27;75.81
2188;BME280;1100;52.014;8.540;2022-10-16T14:05:48;100292.53;;;16.21;76.13
2188;BME280;1100;52.014;8.540;2022-10-16T14:08:14;100290.06;;;16.13;76.02
2188;BME280;1100;52.014;8.540;2022-10-16T14:10:40;100299.91;;;16.09;75.76
2188;BME280;1100;52.014;8.540;2022-10-16T14:13:07;100299.00;;;16.02;75.95
2188;BME280;1100;52.014;8.540;2022-10-16T14:15:35;100300.84;;;15.96;75.87
2188;BME280;1100;52.014;8.540;2022-10-16T14:18:01;100303.84;;;16.02;76.25
2188;BME280;1100;52.014;8.540;2022-10-16T14:20:32;100306.94;;;16.04;76.14
2188;BME280;1100;52.014;8.540;2022-10-16T14:23:04;100306.44;;;16.05;76.25
2188;BME280;1100;52.014;8.540;2022-10-16T14:25:31;100311.13;;;16.09;76.68
2188;BME280;1100;52.014;8.540;2022-10-16T14:28:13;100307.38;;;16.12;76.53
2188;BME280;1100;52.014;8.540;2022-10-16T14:30:50;100304.56;;;16.12;76.45
2188;BME280;1100;52.014;8.540;2022-10-16T14:33:42;100304.09;;;16.13;76.90
2188;BME280;1100;52.014;8.540;2022-10-16T14:38:36;100308.63;;;16.11;76.83
2188;BME280;1100;52.014;8.540;2022-10-16T14:41:03;100309.25;;;16.05;76.74
2188;BME280;1100;52.014;8.540;2022-10-16T14:43:35;100305.69;;;16.05;76.91
2188;BME280;1100;52.014;8.540;2022-10-16T14:46:03;100299.94;;;15.99;76.93